Weather observations for the past three days for
Hutchinson, Hutchinson Municipal Airport-Butler Field
Metric (Imperial)
Date Time (cdt) Wind (kph) Vis. (km) Weather Sky Cond. Temperature (ºC) Relative Humidity Wind Chill (°C) Heat Index (°C) Pressure Precipitation (cm)
Air Dwpt 6 hour altimeter (cm) sea level (mb) 1 hr 3 hr 6 hr
Max. Min.
10 11:35 N 22 G 31 16.09 Fair CLR 12.5 -0.7 40% 76.61 0.0
10 11:15 NE 11 G 26 16.09 Fair CLR 12 0 44% 76.61 0.0
10 10:55 NE 20 G 30 16.09 Partly Cloudy SCT085 11.9 -0.2 44% 76.61 0.0
10 10:35 N 17 16.09 Mostly Cloudy BKN085 11.5 -0.2 45% 76.58 0.0
10 10:15 NE 13 16.09 Mostly Cloudy BKN085 10.9 -0.8 45% 76.58 0.0
10 09:55 N 11 16.09 Overcast OVC085 10.4 -0.8 46% 76.58 0.0
10 09:35 NE 17 G 26 16.09 Overcast OVC085 10.3 -0.9 46% 76.58 0.0
10 09:15 N 15 16.09 Mostly Cloudy BKN095 9.7 -1.1 47% 8 76.56 0.0
10 08:55 NE 13 16.09 Overcast OVC095 9.6 -1.3 47% 8 76.56 0.0
10 08:35 N 15 16.09 Mostly Cloudy BKN095 9.2 -1 49% 7 76.56 0.0
10 08:15 NE 13 16.09 Mostly Cloudy BKN095 8.9 -1.3 49% 7 76.56 0.0
10 07:55 N 7 16.09 Mostly Cloudy BKN095 8.1 -1.1 53% 7 76.53 0.0
10 07:35 Calm 16.09 Mostly Cloudy BKN095 7.2 -0.1 60% 76.53 0.0
10 07:15 Calm 16.09 Partly Cloudy SCT095 7 -0.1 61% 76.5 0.0
10 06:55 Calm 16.09 Mostly Cloudy BKN095 6 -1 6.2 3.9 61% 76.48 0.0
10 06:35 NW 7 16.09 Mostly Cloudy BKN095 5.4 -2.1 59% 4 76.45 0.0
10 06:15 W 11 16.09 Mostly Cloudy BKN095 5 -2.5 59% 3 76.43 0.0
10 05:55 W 7 16.09 Overcast OVC095 4.7 -2.2 61% 3 76.4 0.0
10 05:35 W 9 16.09 Overcast OVC095 4.8 -2.5 60% 3 76.4 0.0
10 05:15 W 11 16.09 Overcast OVC095 4.8 -2.5 60% 3 76.38 0.0
10 04:55 W 6 16.09 Overcast OVC095 4.6 -2.5 60% 76.35 0.0
10 04:35 W 9 16.09 Overcast OVC095 4.9 -2.7 58% 3 76.35 0.0
10 04:15 W 9 16.09 Mostly Cloudy BKN095 4.3 -2.6 61% 2 76.33 0.0
10 03:55 W 7 16.09 Mostly Cloudy SCT080 BKN095 5.5 -2.5 57% 4 76.33 0.0
10 03:35 W 7 16.09 Overcast SCT080 OVC095 6 -2.3 56% 5 76.3 0.0
10 03:15 W 7 8.05 Overcast with Haze OVC095 5.5 -1.9 59% 4 76.3 0.0
10 02:55 W 6 16.09 Overcast OVC095 4.6 -1.5 65% 76.3 0.0
10 02:35 Calm 16.09 Overcast OVC095 4.9 -2.4 60% 76.28 0.0
10 02:15 Calm 16.09 Overcast OVC095 4.7 -3 58% 76.3 0.0
10 01:55 Calm 16.09 Mostly Cloudy BKN095 4.9 -3.1 57% 76.28 0.0
10 01:35 Calm 16.09 Partly Cloudy SCT085 6 -2.9 53% 76.28 0.0
10 01:15 Calm 16.09 Overcast OVC085 5.7 -2.5 56% 76.28 0.0
10 00:55 W 6 16.09 Overcast OVC085 5.1 -2.5 13.8 3 58% 76.28 0.0
10 00:35 Calm 16.09 Overcast OVC085 5.1 -3.2 55% 76.25 0.0
10 00:15 Calm 16.09 Overcast OVC085 3.2 -3.1 64% 76.25 0.0
09 23:55 Calm 16.09 Mostly Cloudy BKN085 5.1 -3.3 55% 76.25 0.0
09 23:35 W 6 16.09 Partly Cloudy SCT085 4.4 -3.8 56% 76.25 0.0
09 23:15 Calm 16.09 Fair CLR 5.2 -4 52% 76.25 0.0
09 22:55 NW 6 16.09 Fair CLR 7 -4.1 45% 76.25 0.0
09 22:35 NW 6 16.09 Fair CLR 7.8 -4.2 43% 76.25 0.0
09 22:15 NW 9 16.09 Fair CLR 7.9 -4.3 42% 7 76.23 0.0
09 21:55 NW 11 16.09 Fair CLR 9 -4.5 39% 8 76.2 0.0
09 21:35 NW 13 16.09 Fair CLR 9.6 -4.7 36% 8 76.17 0.0
09 21:15 NW 15 16.09 Fair CLR 10.2 -5 34% 76.15 0.0
09 20:55 NW 15 16.09 Fair CLR 10.5 -5.1 33% 76.12 0.0
09 20:35 NW 19 16.09 Fair CLR 11.2 -5.3 31% 76.1 0.0
09 20:15 NW 24 16.09 Fair CLR 12 -5 30% 76.07 0.0
09 19:55 NW 26 G 37 16.09 Fair CLR 12.6 -5.6 28% 76.05 0.0
09 19:35 NW 24 G 35 16.09 Fair CLR 13.1 -5.3 28% 76.02 0.0
09 19:15 NW 30 G 37 16.09 Fair CLR 13.5 -5.3 27% 76 0.0
09 18:55 N 31 G 37 16.09 Fair CLR 13.9 -5.3 15.4 13.7 26% 76 0.0
09 18:35 N 26 G 41 16.09 Fair CLR 14.1 -5.2 26% 75.97 0.0
09 18:15 NW 30 G 39 16.09 Fair CLR 14.5 -4.3 27% 75.95 0.0
09 17:55 N 30 G 43 16.09 Fair CLR 14.6 -4.6 26% 75.95 0.0
09 17:35 NW 31 G 41 16.09 Fair CLR 14.9 -4.6 26% 75.92 0.0
09 17:15 N 26 G 44 16.09 Fair CLR 14.8 -4.5 26% 75.92 0.0
09 16:55 N 31 G 48 16.09 Fair CLR 15 -4.4 26% 75.9 0.0
09 16:35 N 28 G 43 16.09 Fair CLR 15.1 -4.8 25% 75.9 0.0
09 16:15 N 28 G 46 16.09 Fair CLR 15.3 -4.4 26% 75.87 0.0
09 15:55 N 28 G 46 16.09 Fair CLR 15 -4 27% 75.87 0.0
09 15:35 N 26 G 44 16.09 Fair CLR 14.8 -4.6 26% 75.87 0.0
09 15:15 N 41 G 48 16.09 Fair and Breezy CLR 15 -4 27% 75.87 0.0
09 14:55 N 28 G 46 11.27 Fair CLR 15.1 -3.2 28% 75.84 0.0
09 14:35 N 31 G 41 16.09 Fair CLR 15.1 -3.2 28% 75.84 0.0
09 14:15 N 28 G 44 16.09 Fair CLR 14.6 -3.9 28% 75.82 0.0
09 13:55 N 28 G 48 16.09 Fair CLR 15 -2.6 30% 75.79 0.0
09 13:35 N 22 G 46 16.09 Fair CLR 14.1 -3.4 30% 75.82 0.0
09 13:15 N 30 G 43 16.09 Fair CLR 13.7 -2.7 32% 75.79 0.0
09 12:55 N 28 G 44 16.09 Fair CLR 13.8 -2.6 14.2 9.1 32% 75.79 0.0
09 12:35 N 33 G 44 16.09 Fair and Breezy CLR 13.7 -2.8 32% 75.77 0.0
09 12:15 NW 33 G 44 16.09 Fair and Breezy CLR 13.4 -2.1 34% 75.77 0.0
09 11:55 N 39 G 50 16.09 Fair and Breezy CLR 13 -2 36% 75.77 0.0
09 11:35 NW 31 G 50 16.09 Fair CLR 13.3 -2.7 33% 75.77 0.0
09 11:15 N 39 G 48 16.09 Fair and Breezy CLR 13.4 -3 32% 75.74 0.0
09 10:55 N 26 G 43 16.09 Fair CLR 13.1 -2.6 34% 75.72 0.0
09 10:35 N 24 G 33 16.09 Partly Cloudy SCT050 12.7 -0.3 41% 75.69 0.0
09 10:15 N 22 G 37 16.09 Fair CLR 12.6 0.2 43% 75.69 0.0
09 09:55 Calm 16.09 Fair CLR 12 0 44% 75.67 0.0
09 09:35 N 20 G 37 16.09 Fair CLR 11.6 1.5 50% 75.64 0.0
09 09:15 N 28 G 39 16.09 Fair CLR 11 1.9 54% 75.62 0.0
09 08:55 N 28 G 41 16.09 Partly Cloudy SCT028 10.8 2.9 58% 75.59 0.0
09 08:35 N 28 G 43 16.09 Partly Cloudy SCT030 10.6 3.4 61% 75.57 0.0
09 08:15 N 30 G 37 16.09 Fair CLR 10.1 4.4 68% 75.54 0.0
09 07:55 N 22 G 43 16.09 Partly Cloudy SCT018 9.7 5 73% 7 75.54 0.0
09 07:35 N 33 G 46 16.09 Partly Cloudy and Breezy SCT016 9.3 4.7 73% 6 75.49 0.0
09 07:15 NW 24 16.09 Mostly Cloudy SCT018 BKN025 9.3 5.3 76% 6 75.49 0.0
09 06:55 NW 28 G 33 16.09 Partly Cloudy SCT022 SCT027 10 5.8 10.8 5.2 75% 7 75.44 0.0
09 06:35 NW 22 G 31 16.09 Mostly Cloudy BKN025 BKN060 10.4 6.2 75% 75.41 0.0
09 06:15 NW 20 G 33 16.09 Mostly Cloudy SCT023 SCT050 BKN060 10.5 6.2 75% 75.39 0.0
09 05:55 W 22 16.09 Overcast OVC050 10.7 6.1 73% 75.36 0.0
09 05:35 W 15 16.09 Overcast SCT049 BKN060 OVC080 10.5 6 74% 75.34 0.0
09 05:15 NW 11 16.09 Overcast SCT042 SCT050 OVC080 10.7 6 73% 75.31 0.0
09 04:55 SW 11 16.09 Light Rain SCT047 BKN060 OVC090 10.7 5.2 69% 75.29 0.0
09 04:35 NW 6 16.09 Light Drizzle SCT065 OVC090 10.2 4.7 69% 75.34 0.0
09 04:15 N 7 16.09 Overcast SCT065 SCT080 OVC090 10.5 3.9 64% 75.34 0.0
09 03:55 N 17 G 26 16.09 Overcast OVC100 10.6 2.9 59% 75.34 0.0
09 03:35 N 11 16.09 Overcast OVC100 10.4 2.4 58% 75.29 0.0
09 03:15 N 15 16.09 Overcast OVC100 9 0.4 55% 7 75.29 0.0
09 02:55 NW 15 16.09 Mostly Cloudy BKN100 8.8 -0.6 52% 7 75.29 0.0
09 02:35 NW 19 16.09 Overcast OVC100 7.7 -0.4 57% 5 75.29 0.0
09 02:15 Calm 16.09 Mostly Cloudy BKN100 7.1 -1 57% 75.23 0.0
09 01:55 W 6 16.09 Partly Cloudy SCT100 6.1 -0.8 62% 75.23 0.0
09 01:35 Calm 16.09 Mostly Cloudy BKN110 5.7 -1.3 61% 75.23 0.0
09 01:15 Calm 16.09 Mostly Cloudy BKN120 6.2 -1.2 59% 75.23 0.0
09 00:55 Calm 16.09 Fair CLR 5.5 -1.3 20.5 3.8 62% 75.26 0.0
09 00:35 S 6 16.09 Fair CLR 6.8 -1.1 57% 75.26 0.0
09 00:15 Calm 16.09 Fair CLR 6.7 -1 58% 75.29 0.0
08 23:55 Calm 16.09 Fair CLR 7 -1.3 56% 75.31 0.0
08 23:35 Calm 16.09 Fair CLR 7.9 -1 54% 75.31 0.0
08 23:15 Calm 16.09 Fair CLR 8.6 -0.7 52% 75.34 0.0
08 22:55 Calm 16.09 Fair CLR 9.6 -1.3 47% 75.36 0.0
08 22:35 W 6 16.09 Fair CLR 11.4 -2.2 39% 75.36 0.0
08 22:15 NW 7 16.09 Fair CLR 12 -2.1 38% 75.36 0.0
08 21:55 NW 9 16.09 Fair CLR 12.8 -2.2 36% 75.36 0.0
08 21:35 NW 11 16.09 Fair CLR 14.8 -2.3 31% 75.34 0.0
08 21:15 NW 15 16.09 Fair CLR 15.5 -2.5 29% 75.34 0.0
08 20:55 NW 22 G 31 16.09 Fair CLR 16 -2.3 29% 75.31 0.0
08 20:35 NW 22 G 30 16.09 Fair CLR 16.5 -2.3 28% 75.31 0.0
08 20:15 NW 26 G 37 16.09 Fair CLR 17.8 -3 24% 75.29 0.0
08 19:55 NW 33 G 44 16.09 Fair and Breezy CLR 18.6 -2.5 24% 75.26 0.0
08 19:35 NW 35 G 44 16.09 Fair and Breezy CLR 19.4 -3.1 22% 75.23 0.0
08 19:15 NW 33 G 44 16.09 Fair and Breezy CLR 20.1 -3.7 20% 75.23 0.0
08 18:55 NW 30 G 43 16.09 Fair CLR 20.5 -3.7 22.5 19.1 19% 75.21 0.0
08 18:35 NW 28 G 44 16.09 Partly Cloudy SCT100 21 -3.7 19% 75.21 0.0
08 18:15 NW 39 G 56 16.09 Partly Cloudy and Breezy SCT100 21.4 -3.2 19% 75.18 0.0
08 17:55 NW 31 G 50 16.09 Partly Cloudy SCT100 21.7 -2.5 20% 75.21 0.0
08 17:35 NW 26 G 46 16.09 Partly Cloudy SCT100 21.9 -2.5 19% 75.21 0.0
08 17:15 NW 35 G 50 16.09 Mostly Cloudy and Breezy BKN100 22.3 -2.5 19% 75.21 0.0
08 16:55 W 35 G 57 16.09 Mostly Cloudy and Breezy BKN100 22.4 -2.4 19% 75.18 0.0
08 16:35 W 30 G 43 16.09 Partly Cloudy SCT100 21.5 -2.2 20% 75.21 0.0
08 16:15 W 28 G 50 16.09 Partly Cloudy SCT110 22.4 -2 20% 75.21 0.0
08 15:56 NW 33 G 46 16.09 Mostly Cloudy and Breezy BKN100 22.2 -2.1 20% 75.21 0.0
08 15:35 NW 35 G 50 16.09 Mostly Cloudy and Breezy BKN100 22.4 -1.2 21% 75.23 0.0
08 15:15 NW 31 16.09 Mostly Cloudy BKN110 21.7 -2.2 20% 75.26 0.0
08 14:55 NW 20 G 39 16.09 Partly Cloudy SCT110 22.1 -2.5 19% 75.29 0.0
08 14:35 W 24 G 35 16.09 Partly Cloudy SCT100 SCT120 22 -3 19% 75.31 0.0
08 14:15 NW 24 G 33 16.09 Mostly Cloudy SCT100 BKN120 20.6 -3.4 20% 75.34 0.0
08 13:55 W 24 G 33 16.09 Mostly Cloudy BKN100 20.5 -4.2 19% 75.36 0.0
08 13:35 NW 19 G 30 16.09 Mostly Cloudy BKN100 19.6 -5 19% 75.39 0.0
08 13:15 NW 19 G 30 16.09 Mostly Cloudy SCT080 BKN110 19.1 -4.7 20% 75.41 0.0
08 12:55 W 19 16.09 Mostly Cloudy BKN110 19.7 -4.1 20.4 6.7 20% 75.44 0.0
08 12:35 W 20 G 35 16.09 Mostly Cloudy BKN120 19.8 -4.5 19% 75.44 0.0
08 12:15 W 22 G 35 16.09 Partly Cloudy SCT120 20.3 -3.7 20% 75.46 0.0
08 11:55 NW 30 G 37 16.09 Fair CLR 19 -4.8 20% 75.49 0.0
08 11:35 W 20 G 28 16.09 Fair CLR 19.1 -4.4 20% 75.49 0.0
08 11:15 W 30 G 35 16.09 Fair CLR 18.7 -4.8 20% 75.51 0.0
08 10:55 W 24 G 35 16.09 Fair CLR 18.3 -4 22% 75.51 0.0
08 10:35 W 19 G 30 16.09 Partly Cloudy SCT095 17.3 -3.3 24% 75.54 0.0
08 10:15 W 22 16.09 Partly Cloudy SCT095 16.5 -3.1 26% 75.57 0.0
08 09:55 W 17 16.09 Mostly Cloudy BKN095 15.4 -3.5 27% 75.59 0.0
08 09:35 W 20 G 31 16.09 Partly Cloudy SCT100 SCT120 15.1 -3.1 29% 75.59 0.0
08 09:15 W 22 16.09 Mostly Cloudy SCT100 BKN110 14.3 -2.8 31% 75.62 0.0
08 08:55 W 15 16.09 Overcast OVC100 12.7 -3.8 32% 75.62 0.0
08 08:35 W 15 16.09 Overcast OVC100 11.5 -3.7 35% 75.62 0.0
08 08:15 SW 7 16.09 Overcast OVC100 10.2 -3.5 38% 75.62 0.0
08 07:55 SW 7 16.09 Overcast OVC110 9.2 -3.5 41% 8 75.62 0.0
08 07:35 SW 9 16.09 Overcast OVC110 8.7 -3.6 42% 7 75.62 0.0
08 07:15 SW 7 16.09 Mostly Cloudy BKN110 8.1 -3.9 43% 7 75.62 0.0
08 06:55 SW 9 16.09 Fair CLR 6.3 -4.4 6.5 2.8 47% 5 75.62 0.0
08 06:35 SW 6 16.09 Fair CLR 5.6 -4.6 48% 75.62 0.0
08 06:15 Calm 16.09 Fair CLR 5.5 -5 47% 75.62 0.0
08 05:55 SW 6 16.09 Fair CLR 5 -5 49% 75.62 0.0
08 05:35 Calm 16.09 Fair CLR 4.7 -5 50% 75.64 0.0
08 05:15 Calm 16.09 Fair CLR 4.8 -5.1 49% 75.64 0.0
08 04:55 Calm 16.09 Fair CLR 4.5 -4.8 51% 75.64 0.0
08 04:35 Calm 16.09 Fair CLR 4.7 -4.7 51% 75.64 0.0
08 04:15 Calm 16.09 Fair CLR 3.3 -4.4 57% 75.64 0.0
08 03:55 Calm 16.09 Fair CLR 4.8 -4.9 50% 75.67 0.0
08 03:35 Calm 16.09 Fair CLR 5.8 -5.5 44% 75.67 0.0
08 03:15 Calm 16.09 Fair CLR 5.1 -5.6 46% 75.67 0.0
08 02:55 Calm 16.09 Fair CLR 4.6 -5.5 48% 75.67 0.0
08 02:35 Calm 16.09 Fair CLR 4.9 -5.7 47% 75.67 0.0
08 02:15 S 7 16.09 Fair CLR 5.5 -5.8 44% 4 75.67 0.0
08 01:55 S 6 16.09 Fair CLR 5.2 -5.6 46% 75.69 0.0
08 01:35 Calm 16.09 Fair CLR 6.4 -6 41% 75.69 0.0
08 01:15 S 6 16.09 Fair CLR 6.3 -6 41% 75.72 0.0
08 00:55 Calm 16.09 Fair CLR 3.6 -4.9 14.9 2.4 54% 75.72 0.0
08 00:35 Calm 16.09 Fair CLR 3.6 -4.7 55% 75.72 0.0
08 00:15 Calm 16.09 Fair CLR 4 -4.8 53% 75.74 0.0
07 23:55 S 7 16.09 Fair CLR 3.5 -4.1 58% 2 75.74 0.0
07 23:35 Calm 16.09 Fair CLR 3.7 -3.7 59% 75.74 0.0
07 23:15 Calm 16.09 Fair CLR 3.9 -4.9 53% 75.77 0.0
07 22:55 Calm 16.09 Fair CLR 4.4 -4.6 52% 75.77 0.0
07 22:35 Calm 16.09 Fair CLR 4.7 -4.7 51% 75.77 0.0
07 22:15 Calm 16.09 Fair CLR 5.7 -3.6 52% 75.77 0.0
07 21:55 Calm 16.09 Fair CLR 5.9 -4.3 48% 75.79 0.0
07 21:35 Calm 16.09 Fair CLR 6.1 -3.4 51% 75.79 0.0
07 21:15 Calm 16.09 Fair CLR 8.9 -4.9 38% 75.77 0.0
07 20:55 Calm 16.09 Fair CLR 10.9 -5.9 31% 75.77 0.0
07 20:35 N 6 16.09 Fair CLR 10.5 -4.9 34% 75.74 0.0
07 20:15 NW 9 16.09 Fair CLR 12 -5.5 29% 75.74 0.0
07 19:55 NW 9 16.09 Fair CLR 13.2 -5.8 26% 75.74 0.0
07 19:35 NW 9 16.09 Fair CLR 13.8 -6.2 25% 75.72 0.0
07 19:15 NW 13 16.09 Fair CLR 14.3 -6.3 24% 75.72 0.0
07 18:55 NW 15 16.09 Fair CLR 15 -6.7 15.7 11.4 22% 75.72 0.0
07 18:35 NW 17 16.09 Fair CLR 15 -7.1 21% 75.72 0.0
07 18:15 NW 19 G 28 16.09 Fair CLR 15.3 -6.8 21% 75.74 0.0
07 17:55 N 11 16.09 Fair CLR 15 -6.7 22% 75.74 0.0
07 17:35 NW 19 G 28 16.09 Fair CLR 15.3 -6.9 21% 75.74 0.0
07 17:15 NW 15 16.09 Fair CLR 15.4 -6.8 21% 75.74 0.0
07 16:55 W 17 G 39 16.09 Fair CLR 14.9 -7 22% 75.77 0.0
07 16:35 NW 26 G 33 16.09 Fair CLR 15 -7 21% 75.77 0.0
07 16:15 N 9 G 28 16.09 Fair CLR 14.8 -6.9 22% 75.79 0.0
07 15:55 NW 24 G 41 16.09 Fair CLR 14.7 -7.3 21% 75.77 0.0
07 15:35 NW 20 G 31 16.09 Fair CLR 14.4 -7.4 22% 75.82 0.0
07 15:15 NW 17 G 30 16.09 Fair CLR 13.8 -7.9 22% 75.82 0.0
07 14:55 NW 11 G 30 16.09 Fair CLR 13.2 -7.8 23% 75.84 0.0
07 14:35 N 17 G 31 16.09 Fair CLR 13.4 -7.5 23% 75.84 0.0
07 14:15 NW 22 G 31 16.09 Fair CLR 13.5 -7.4 23% 75.87 0.0
07 13:55 NW 24 G 39 16.09 Fair CLR 13.1 -7.9 23% 75.87 0.0
07 13:35 SW 7 G 30 16.09 Fair CLR 12.8 -7.3 24% 75.9 0.0
07 13:15 W 11 G 30 16.09 Fair CLR 12.7 -7.5 24% 75.9 0.0
07 12:55 W 11 16.09 Fair CLR 12 -7.6 25% 75.92 0.0
07 12:35 Calm 16.09 Fair CLR 10.4 -7.8 27% 75.95 0.0
07 12:15 NE 15 16.09 Fair CLR 10.6 -7.2 28% 75.95 0.0
Date Time (cdt) Wind (kph) Vis. (km) Weather Sky Cond. Air Dwpt Max. Min. Relative Humidity Wind Chill (°C) Heat Index (°C) altimeter (cm) sea level (mb) 1 hr 3 hr 6 hr
6 hour
Temperature (ºC) Pressure Precipitation (cm)